Wilson, KS (67490)

5:15 AM CST on January 31, 2015 (GMT -0600)
Wilson | Change Station
CLOSE
Current Station
Personal Weather Station
Location: Wilson, KS
Elevation: 1689 ft
Nearby Weather Stations

Elev 1689 ft 38.82 °N, 98.47 °W | Updated 26 seconds ago

Snow
Snow
33.9 °F
Feels Like 27 °F
N
8.0
Wind Variable Wind from SSE
Gusts 10.5 mph

Today
High -- | Low -- °F
--% Chance of Precip.
Yesterday
High -- | Low -- °F
Precip. -- in
7:41 AM 5:54 PM
Waxing Gibbous, 89% visible
Pressure 30.15 in
Visibility 2.5 miles
Clouds Overcast 4700 ft
Windchill 27 °F
Dew Point 27 °F
Humidity 78%
Rainfall 0.05 in
Snow Depth Not available.
UV 0 out of 12
Pollen .10 out of 12
Air Quality Not available.
Flu Activity Not available.
METAR KRSL 311053Z AUTO 16011KT 2 1/2SM -SN BR OVC047 01/00 A3011 RMK AO2 SLP209 P0001 T00060000

More Conditions Fewer Conditions

Pressure 30.15 in
Visibility 2.5 miles
Clouds Overcast 4700 ft
Windchill 27 °F
Dew Point 27 °F
Humidity 78%
Rainfall 0.05 in
Snow Depth Not available.
UV 0 out of 12
Pollen .10 out of 12
Air Quality Not available.
Flu Activity Not available.
METAR KRSL 311053Z AUTO 16011KT 2 1/2SM -SN BR OVC047 01/00 A3011 RMK AO2 SLP209 P0001 T00060000

More Conditions Fewer Conditions

10-Day Weather Forecast

Almanac

Astronomy

Jan. 31, 2015 Rise Set
Actual Time
Civil Twilight
Nautical Twilight
Astronomical Twilight
Moon
Length of Visible Light
Length of Day
Tomorrow will be .
, % of the Moon is Illuminated

Today's Extremes

State Highs State Lows

Community

WunderPhotos

Upload Photos

1,792,031 photos uploaded!

WunderBlogs® & News

Nearby

Air Quality

  Air Quality AQ Index Pollutant
Not available.

Snow Depth

Station Depth Elevation

Earthquake Activity

City Distance Mag. Time & Date
Minimum magnitude displayed is 2.5.

Coastal Water Temperatures

Place Temperature

Nearby Weather Stations